createdAt,value
2023-04-24T00:03:29.286Z,15.35
2023-04-24T00:08:31.143Z,15.29
2023-04-24T00:13:32.792Z,15.29
2023-04-24T00:18:34.420Z,15.20
2023-04-24T00:23:36.292Z,15.10
2023-04-24T00:28:37.894Z,15.01
2023-04-24T00:33:39.575Z,14.99
2023-04-24T00:38:41.445Z,14.97
2023-04-24T00:43:43.408Z,14.90
2023-04-24T00:48:45.577Z,14.85
2023-04-24T00:53:47.760Z,14.81
2023-04-24T00:58:50.442Z,14.75
2023-04-24T01:03:54.053Z,14.59
2023-04-24T01:08:56.616Z,14.51
2023-04-24T01:14:00.307Z,14.52
2023-04-24T01:19:07.729Z,14.44
2023-04-24T01:24:09.463Z,14.47
2023-04-24T01:29:11.499Z,14.47
2023-04-24T01:34:13.267Z,14.47
2023-04-24T01:39:16.354Z,14.46
2023-04-24T01:44:18.930Z,14.44
2023-04-24T01:49:20.975Z,14.35
2023-04-24T01:54:22.774Z,14.33
2023-04-24T01:59:26.289Z,14.25
2023-04-24T02:04:27.998Z,14.15
2023-04-24T02:09:29.773Z,14.01
2023-04-24T02:14:32.053Z,13.93
2023-04-24T02:19:33.952Z,13.80
2023-04-24T02:24:35.941Z,13.76
2023-04-24T02:29:38.148Z,13.65
2023-04-24T02:34:40.106Z,13.55
2023-04-24T02:45:20.202Z,13.45
2023-04-24T02:50:22.485Z,13.22
2023-04-24T02:55:25.100Z,13.00
2023-04-24T03:00:26.926Z,12.88
2023-04-24T03:05:31.815Z,12.79
2023-04-24T03:16:26.425Z,12.76
2023-04-24T03:21:30.616Z,12.76
2023-04-24T03:26:36.694Z,12.76
2023-04-24T03:31:57.203Z,12.77
2023-04-24T03:36:58.983Z,12.78
2023-04-24T03:42:02.310Z,12.78
2023-04-24T03:47:15.311Z,12.75
2023-04-24T03:52:17.936Z,12.70
2023-04-24T03:57:29.011Z,12.73
2023-04-24T04:02:42.945Z,12.79
2023-04-24T04:13:38.554Z,12.79
2023-04-24T04:18:43.246Z,12.77
2023-04-24T04:23:47.964Z,12.85
2023-04-24T04:28:55.873Z,13.03
2023-04-24T04:33:57.727Z,13.13
2023-04-24T04:39:00.393Z,13.30
2023-04-24T04:44:30.381Z,13.38
2023-04-24T04:49:33.672Z,13.25
2023-04-24T04:54:35.819Z,13.72
2023-04-24T04:59:38.258Z,13.84
2023-04-24T05:04:46.456Z,14.20
2023-04-24T05:09:49.162Z,14.57
2023-04-24T05:14:51.244Z,15.09
2023-04-24T05:19:53.017Z,15.51
2023-04-24T05:24:55.158Z,16.14
2023-04-24T05:30:23.072Z,16.93
2023-04-24T05:35:26.019Z,17.59
2023-04-24T05:40:27.866Z,17.89
2023-04-24T05:45:29.838Z,17.15
2023-04-24T05:50:31.547Z,17.51
2023-04-24T05:55:33.604Z,17.35
2023-04-24T06:00:36.443Z,17.70
2023-04-24T06:05:42.514Z,17.16
2023-04-24T06:10:44.338Z,17.38
2023-04-24T06:15:46.758Z,17.54
2023-04-24T06:20:56.492Z,17.66
2023-04-24T06:26:00.812Z,17.70
2023-04-24T06:31:02.858Z,17.54
2023-04-24T06:36:05.048Z,17.23
2023-04-24T06:41:06.920Z,17.35
2023-04-24T06:46:08.699Z,17.37
2023-04-24T06:51:10.403Z,17.42
2023-04-24T06:56:12.026Z,17.48
2023-04-24T07:01:13.810Z,17.86
2023-04-24T07:06:17.554Z,17.80
2023-04-24T07:11:19.340Z,18.24
2023-04-24T07:16:21.050Z,18.00
2023-04-24T07:21:22.874Z,18.03
2023-04-24T07:26:24.965Z,18.35
2023-04-24T07:31:26.856Z,18.00
2023-04-24T07:36:29.215Z,18.09
2023-04-24T07:41:31.248Z,17.96
2023-04-24T07:46:33.183Z,17.85
2023-04-24T07:51:39.169Z,17.92
2023-04-24T07:56:43.855Z,18.09
2023-04-24T08:01:45.500Z,17.99
2023-04-24T08:06:48.949Z,17.85
2023-04-24T08:11:50.800Z,17.87
2023-04-24T08:16:56.335Z,17.50
2023-04-24T08:21:58.066Z,17.45
2023-04-24T08:26:59.703Z,17.29
2023-04-24T08:32:01.548Z,17.14
2023-04-24T08:37:03.738Z,16.83
2023-04-24T08:42:08.999Z,16.64
2023-04-24T08:47:12.163Z,16.79
2023-04-24T08:52:14.707Z,16.81
2023-04-24T08:57:17.536Z,16.84
2023-04-24T09:02:19.575Z,16.52
2023-04-24T09:07:25.937Z,16.59
2023-04-24T09:17:29.646Z,16.08
2023-04-24T09:22:32.133Z,15.62
2023-04-24T09:27:36.980Z,15.48
2023-04-24T09:32:38.607Z,15.52
2023-04-24T09:37:45.599Z,15.32
2023-04-24T09:42:55.216Z,15.33
2023-04-24T09:47:56.906Z,15.03
2023-04-24T09:53:02.309Z,15.08
2023-04-24T09:58:06.380Z,15.05
2023-04-24T10:03:09.203Z,14.98
2023-04-24T10:08:12.572Z,14.87
2023-04-24T10:13:16.513Z,14.98
2023-04-24T10:18:19.879Z,15.21
2023-04-24T10:23:21.783Z,15.21
2023-04-24T10:28:25.484Z,15.09
2023-04-24T10:33:28.036Z,15.18
2023-04-24T10:38:31.251Z,14.92
2023-04-24T10:43:34.331Z,14.90
2023-04-24T10:48:42.637Z,14.75
2023-04-24T10:53:44.486Z,14.90
2023-04-24T10:58:54.721Z,14.78
2023-04-24T11:04:03.030Z,14.67
2023-04-24T11:09:07.374Z,14.74
2023-04-24T11:14:09.506Z,14.67
2023-04-24T11:19:20.171Z,14.54
2023-04-24T11:24:50.677Z,14.56
2023-04-24T11:29:58.808Z,14.69
2023-04-24T11:35:01.453Z,14.63
2023-04-24T11:40:05.499Z,14.72
2023-04-24T11:45:12.087Z,14.97
2023-04-24T11:50:16.262Z,14.98
2023-04-24T11:55:18.056Z,14.82
2023-04-24T12:00:21.577Z,15.00
2023-04-24T12:05:25.505Z,15.11
2023-04-24T12:10:29.831Z,15.08
2023-04-24T12:15:31.552Z,15.21
2023-04-24T12:20:34.054Z,15.20
2023-04-24T12:25:36.165Z,15.19
2023-04-24T12:30:45.758Z,15.08
2023-04-24T12:35:48.849Z,15.13
2023-04-24T12:41:03.771Z,15.23
2023-04-24T12:46:06.102Z,15.21
2023-04-24T12:51:07.765Z,15.18
2023-04-24T12:56:09.432Z,15.46
2023-04-24T13:01:11.422Z,15.63
2023-04-24T13:06:13.166Z,15.83
2023-04-24T13:11:14.956Z,15.96
2023-04-24T13:16:16.933Z,15.95
2023-04-24T13:21:18.624Z,16.00
2023-04-24T13:26:20.879Z,15.79
2023-04-24T13:31:22.531Z,15.91
2023-04-24T13:36:24.295Z,16.00
2023-04-24T13:41:26.252Z,15.79
2023-04-24T13:46:28.057Z,15.90
2023-04-24T13:51:29.744Z,15.96
2023-04-24T13:56:31.324Z,16.01
2023-04-24T14:01:33.046Z,16.10
2023-04-24T14:06:34.862Z,15.93
2023-04-24T14:11:36.770Z,15.90
2023-04-24T14:16:38.503Z,15.84
2023-04-24T14:21:40.366Z,15.50
2023-04-24T14:26:42.129Z,15.78
2023-04-24T14:31:44.504Z,15.44
2023-04-24T14:36:46.793Z,15.18
2023-04-24T14:41:48.541Z,15.19
2023-04-24T14:46:50.917Z,15.26
2023-04-24T14:51:52.767Z,15.16
2023-04-24T14:56:55.913Z,15.38
2023-04-24T15:02:14.670Z,15.45
2023-04-24T15:07:18.341Z,15.52
2023-04-24T15:12:20.037Z,15.65
2023-04-24T15:17:21.785Z,15.74
2023-04-24T15:22:23.656Z,15.76
2023-04-24T15:27:25.458Z,15.76
2023-04-24T15:32:27.150Z,15.74
2023-04-24T15:37:29.140Z,15.64
2023-04-24T15:42:30.901Z,15.69
2023-04-24T15:47:33.807Z,15.67
2023-04-24T15:52:36.251Z,15.55
2023-04-24T15:57:38.251Z,15.13
2023-04-24T16:02:40.438Z,14.96
2023-04-24T16:07:42.286Z,14.61
2023-04-24T16:12:43.895Z,14.46
2023-04-24T16:17:45.950Z,13.82
2023-04-24T16:22:47.842Z,13.74
2023-04-24T16:27:51.365Z,13.09
2023-04-24T16:32:53.030Z,13.19
2023-04-24T16:37:54.963Z,13.06
2023-04-24T16:42:56.628Z,13.00
2023-04-24T16:47:58.407Z,12.98
2023-04-24T16:53:00.313Z,12.88
2023-04-24T16:58:01.980Z,12.93
2023-04-24T17:03:03.899Z,12.91
2023-04-24T17:08:06.725Z,12.82
2023-04-24T17:13:09.330Z,12.71
2023-04-24T17:18:11.606Z,12.69
2023-04-24T17:23:13.708Z,12.76
2023-04-24T17:28:36.482Z,12.74
2023-04-24T17:33:38.138Z,12.67
2023-04-24T17:38:39.715Z,12.71
2023-04-24T17:43:41.857Z,12.71
2023-04-24T17:48:43.494Z,12.71
2023-04-24T17:53:45.150Z,12.64
2023-04-24T17:58:47.081Z,12.60
2023-04-24T18:03:49.080Z,12.47
2023-04-24T18:08:53.214Z,12.42
2023-04-24T18:13:55.467Z,12.40
2023-04-24T18:18:57.062Z,12.39
2023-04-24T18:24:00.448Z,12.35
2023-04-24T18:29:02.583Z,12.32
2023-04-24T18:34:04.544Z,12.27
2023-04-24T18:39:06.307Z,12.32
2023-04-24T18:44:09.153Z,12.19
2023-04-24T18:49:10.829Z,12.20
2023-04-24T18:54:12.664Z,12.26
2023-04-24T18:59:14.267Z,12.25
2023-04-24T19:04:16.065Z,12.20
2023-04-24T19:09:18.069Z,12.04
2023-04-24T19:14:19.799Z,11.85
2023-04-24T19:19:26.233Z,11.82
2023-04-24T19:24:29.467Z,11.88
2023-04-24T19:29:31.131Z,11.95
2023-04-24T19:34:34.569Z,11.95
2023-04-24T19:39:36.448Z,12.02
2023-04-24T19:44:38.058Z,11.88
2023-04-24T19:49:39.905Z,11.95
2023-04-24T19:54:41.515Z,11.86
2023-04-24T19:59:43.403Z,11.84
2023-04-24T20:04:45.107Z,11.83
2023-04-24T20:09:47.193Z,11.81
2023-04-24T20:14:50.565Z,11.84
2023-04-24T20:19:52.301Z,11.77
2023-04-24T20:24:53.969Z,11.75
2023-04-24T20:29:55.979Z,11.82
2023-04-24T20:34:57.646Z,11.77
2023-04-24T20:40:00.061Z,11.74
2023-04-24T20:45:01.797Z,11.75
2023-04-24T20:50:06.211Z,11.68
2023-04-24T20:55:08.691Z,11.72
2023-04-24T21:00:11.333Z,11.77
2023-04-24T21:05:12.954Z,11.74
2023-04-24T21:10:14.589Z,11.71
2023-04-24T21:15:16.445Z,11.75
2023-04-24T21:20:18.263Z,11.74
2023-04-24T21:25:19.897Z,11.69
2023-04-24T21:30:22.081Z,11.71
2023-04-24T21:35:23.888Z,11.67
2023-04-24T21:40:25.892Z,11.63
2023-04-24T21:45:27.617Z,11.66
2023-04-24T21:50:29.508Z,11.62
2023-04-24T21:55:31.381Z,11.58
2023-04-24T22:00:34.811Z,11.60
2023-04-24T22:05:37.689Z,11.59
2023-04-24T22:10:39.387Z,11.53
2023-04-24T22:15:41.009Z,11.60
2023-04-24T22:20:42.740Z,11.62
2023-04-24T22:25:44.552Z,11.59
2023-04-24T22:30:46.184Z,11.58
2023-04-24T22:35:47.793Z,11.61
2023-04-24T22:40:49.633Z,11.55
2023-04-24T22:45:51.783Z,11.62
2023-04-24T22:50:53.399Z,11.55
2023-04-24T22:55:56.697Z,11.53
2023-04-24T23:00:58.782Z,11.53
2023-04-24T23:06:00.571Z,11.58
2023-04-24T23:11:02.353Z,11.63
2023-04-24T23:16:05.257Z,11.58
2023-04-24T23:21:07.061Z,11.58
2023-04-24T23:26:08.707Z,11.52
2023-04-24T23:31:10.410Z,11.54
2023-04-24T23:36:13.146Z,11.51
2023-04-24T23:41:14.857Z,11.52
2023-04-24T23:46:16.646Z,11.49
2023-04-24T23:51:18.328Z,11.50
2023-04-24T23:56:20.319Z,11.48
